Time;durP1;ratioP1;P1;durP2;ratioP2;P2;SDS_P1;SDS_P2;PMS_P1;PMS_P2;Temp;Humidity;BMP_temperature;BMP_pressure;BME280_temperature;BME280_humidity;BME280_pressure;Samples;Min_cycle;Max_cycle;Signal;HPM_P1;HPM_P2
2022/01/12 00:00:47;;;;;;;5.68;3.47;;;;;;;;;;5052599;28;20056;-47
2022/01/12 00:03:13;;;;;;;5.18;3.65;;;;;;;;;;5055489;28;20060;-45
2022/01/12 00:05:39;;;;;;;5.95;3.33;;;;;;;;;;5055613;28;20029;-45
2022/01/12 00:08:07;;;;;;;5.00;3.60;;;;;;;;;;5055576;28;20025;-46
2022/01/12 00:10:33;;;;;;;4.80;3.88;;;;;;;;;;5055806;28;20029;-46
2022/01/12 00:12:59;;;;;;;6.00;3.50;;;;;;;;;;5055484;28;20394;-46
2022/01/12 00:15:25;;;;;;;5.10;3.22;;;;;;;;;;5055697;28;20059;-48
2022/01/12 00:17:51;;;;;;;5.63;3.58;;;;;;;;;;5055356;28;20027;-47
2022/01/12 00:20:17;;;;;;;5.25;3.63;;;;;;;;;;5055356;28;20033;-47
2022/01/12 00:22:43;;;;;;;5.75;4.03;;;;;;;;;;5055283;28;20032;-47
2022/01/12 00:25:44;;;;;;;5.00;3.80;;;14.60;88.50;;;;;;5055259;28;20053;-47
2022/01/12 00:33:26;;;;;;;7.13;4.40;;;;;;;;;;5055437;28;20036;-47
2022/01/12 00:35:53;;;;;;;6.32;3.72;;;;;;;;;;5055034;28;20037;-47
2022/01/12 00:38:21;;;;;;;5.85;3.78;;;14.50;90.10;;;;;;5054976;28;20021;-47
2022/01/12 00:40:49;;;;;;;6.30;4.20;;;14.50;90.10;;;;;;5054905;28;20562;-47
2022/01/12 00:43:17;;;;;;;4.22;3.33;;;14.50;90.20;;;;;;5054892;28;20032;-48
2022/01/12 00:45:45;;;;;;;6.10;3.92;;;;;;;;;;5054843;28;20040;-47
2022/01/12 00:48:11;;;;;;;5.15;3.63;;;;;;;;;;5055069;28;20436;-48
2022/01/12 00:50:38;;;;;;;5.00;3.78;;;;;;;;;;5054863;28;20162;-48
2022/01/12 00:53:04;;;;;;;5.63;4.05;;;;;;;;;;5054783;28;20029;-46
2022/01/12 00:55:34;;;;;;;4.68;3.72;;;14.50;90.20;;;;;;5054626;28;20057;-46
2022/01/12 00:58:01;;;;;;;6.18;3.90;;;14.40;90.20;;;;;;5054629;28;20025;-45
2022/01/12 01:00:28;;;;;;;4.50;3.38;;;14.40;90.30;;;;;;5054616;28;20120;-45
2022/01/12 01:02:54;;;;;;;4.50;3.92;;;14.30;88.50;;;;;;5054285;28;20144;-45
2022/01/12 01:05:22;;;;;;;4.28;3.85;;;14.40;90.00;;;;;;5054694;28;20432;-45
2022/01/12 01:07:49;;;;;;;4.60;3.63;;;14.40;87.40;;;;;;5054711;28;20021;-46
2022/01/12 01:10:29;;;;;;;5.68;4.05;;;;;;;;;;5054405;28;20029;-45
2022/01/12 01:12:55;;;;;;;;;;;14.30;90.60;;;;;;5054410;28;20025;-46
2022/01/12 01:15:38;;;;;;;6.50;4.30;;;;;;;;;;5054149;28;19917;-47
2022/01/12 01:26:18;;;;;;;4.97;3.55;;;;;;;;;;5054119;28;20044;-45
2022/01/12 01:28:44;;;;;;;6.25;4.03;;;;;;;;;;5054168;28;20029;-45
2022/01/12 01:31:11;;;;;;;4.78;3.90;;;;;;;;;;5054274;28;20025;-45
2022/01/12 01:33:37;;;;;;;6.68;3.45;;;;;;;;;;5054214;28;20025;-45
2022/01/12 01:36:03;;;;;;;5.05;3.83;;;;;;;;;;5053854;28;20076;-47
2022/01/12 01:38:29;;;;;;;5.03;3.78;;;;;;;;;;5053924;28;20053;-46
2022/01/12 01:40:55;;;;;;;5.80;3.30;;;;;;;;;;5053926;28;20028;-46
2022/01/12 01:54:16;;;;;;;4.88;3.88;;;;;;;;;;5054244;28;20151;-46
2022/01/12 01:56:42;;;;;;;5.32;3.70;;;;;;;;;;5053536;28;20502;-46
2022/01/12 01:59:08;;;;;;;4.97;3.50;;;;;;;;;;5053538;28;20095;-45
2022/01/12 02:01:34;;;;;;;4.07;3.25;;;;;;;;;;5053196;28;20510;-46
2022/01/12 02:04:02;;;;;;;5.80;4.03;;;;;;;;;;5053451;28;20055;-46
2022/01/12 02:06:29;;;;;;;4.75;3.58;;;14.10;90.40;;;;;;5053358;28;20083;-46
2022/01/12 02:08:55;;;;;;;4.18;3.72;;;;;;;;;;5053350;28;20064;-45
2022/01/12 02:11:28;;;;;;;5.45;3.72;;;14.10;84.80;;;;;;5053264;28;20039;-45
2022/01/12 02:13:55;;;;;;;6.70;4.45;;;;;;;;;;5053257;28;20025;-45
2022/01/12 02:16:28;;;;;;;4.57;3.55;;;;;;;;;;5053141;28;20108;-45
2022/01/12 02:19:13;;;;;;;3.72;3.03;;;;;;;;;;5053415;28;20051;-45
2022/01/12 02:41:11;;;;;;;6.22;4.65;;;;;;;;;;5052761;28;20499;-47
2022/01/12 02:50:35;;;;;;;5.28;3.65;;;;;;;;;;5052694;28;20029;-47
2022/01/12 02:54:38;;;;;;;5.40;3.97;;;;;;;;;;5021352;28;20033;-47
2022/01/12 02:57:04;;;;;;;5.60;3.90;;;;;;;;;;5052411;28;20048;-47
2022/01/12 02:59:30;;;;;;;5.00;3.78;;;;;;;;;;5052421;28;20029;-47
2022/01/12 03:04:29;;;;;;;3.53;3.22;;;;;;;;;;5052615;28;20078;-47
2022/01/12 03:07:04;;;;;;;5.95;3.88;;;;;;;;;;5052365;28;20134;-47
2022/01/12 03:09:30;;;;;;;4.25;3.35;;;;;;;;;;5052249;28;20510;-48
2022/01/12 03:11:56;;;;;;;4.90;3.50;;;;;;;;;;5052260;28;20025;-48
2022/01/12 03:14:21;;;;;;;4.50;3.47;;;;;;;;;;5052255;28;20082;-47
2022/01/12 03:16:47;;;;;;;5.13;3.63;;;;;;;;;;5052149;28;20475;-47
2022/01/12 03:19:13;;;;;;;5.45;3.83;;;;;;;;;;5052484;28;20079;-45
2022/01/12 03:21:39;;;;;;;4.03;3.17;;;;;;;;;;5052119;28;20036;-45
2022/01/12 03:24:07;;;;;;;4.78;3.90;;;;;;;;;;5052436;28;20471;-45
2022/01/12 03:26:34;;;;;;;3.97;3.22;;;;;;;;;;5052021;28;20064;-46
2022/01/12 03:29:00;;;;;;;3.65;3.33;;;;;;;;;;5052087;28;20032;-45
2022/01/12 03:31:29;;;;;;;4.68;3.58;;;13.80;91.10;;;;;;5052329;28;20029;-45
2022/01/12 03:34:09;;;;;;;4.00;3.45;;;13.80;91.10;;;;;;5052194;28;20414;-47
2022/01/12 03:39:09;;;;;;;4.47;3.15;;;13.80;86.00;;;;;;5056662;28;20063;-48
2022/01/12 03:41:35;;;;;;;5.70;4.00;;;13.80;91.00;;;;;;5056102;28;20058;-47
2022/01/12 03:44:03;;;;;;;4.00;3.60;;;13.80;91.10;;;;;;5056103;28;20036;-47
2022/01/12 03:46:39;;;;;;;4.55;3.55;;;13.70;86.10;;;;;;5056267;28;20037;-47
2022/01/12 03:49:06;;;;;;;3.88;3.47;;;;;;;;;;5056028;28;20490;-48
2022/01/12 03:51:32;;;;;;;5.43;4.10;;;;;;;;;;5055901;28;20063;-48
2022/01/12 03:53:58;;;;;;;5.03;3.92;;;;;;;;;;5056098;28;20029;-47
2022/01/12 03:56:24;;;;;;;4.10;3.70;;;;;;;;;;5055831;28;20550;-49
2022/01/12 03:58:50;;;;;;;3.70;3.40;;;;;;;;;;5055786;28;20103;-46
2022/01/12 04:01:16;;;;;;;5.07;3.70;;;;;;;;;;5055702;28;20087;-47
2022/01/12 04:03:46;;;;;;;5.28;3.17;;;;;;;;;;5055526;28;20522;-47
2022/01/12 04:08:56;;;;;;;4.75;3.78;;;;;;;;;;5055842;28;20028;-47
2022/01/12 04:11:22;;;;;;;4.07;3.60;;;;;;;;;;5055515;28;20459;-47
2022/01/12 04:13:49;;;;;;;4.45;3.58;;;;;;;;;;5055494;28;20079;-46
2022/01/12 04:16:17;;;;;;;3.92;3.33;;;13.70;91.00;;;;;;5055479;28;20041;-47
2022/01/12 04:18:43;;;;;;;4.60;3.17;;;;;;;;;;5055394;28;20025;-48
2022/01/12 04:21:10;;;;;;;3.65;3.20;;;;;;;;;;5055331;28;20029;-46
2022/01/12 04:23:37;;;;;;;4.00;3.25;;;13.70;91.00;;;;;;5055377;28;20032;-47
2022/01/12 04:26:09;;;;;;;5.35;3.63;;;13.60;90.50;;;;;;5055584;28;20464;-47
2022/01/12 04:28:36;;;;;;;4.38;3.20;;;;;;;;;;5055853;28;20036;-47
2022/01/12 04:31:02;;;;;;;4.85;3.58;;;;;;;;;;5055440;28;20042;-47
2022/01/12 04:33:30;;;;;;;4.68;3.10;;;;;;;;;;5055160;28;20491;-45
2022/01/12 04:35:56;;;;;;;5.68;3.88;;;;;;;;;;5055000;28;20028;-46
2022/01/12 04:38:28;;;;;;;4.43;3.67;;;13.50;85.90;;;;;;5055023;28;20036;-46
2022/01/12 04:40:54;;;;;;;4.25;3.47;;;;;;;;;;5054906;28;20032;-46
2022/01/12 04:43:23;;;;;;;5.07;3.55;;;13.60;91.00;;;;;;5055008;28;20026;-46
2022/01/12 04:50:49;;;;;;;4.15;3.58;;;13.60;90.50;;;;;;5054722;28;20471;-47
2022/01/12 04:53:16;;;;;;;4.75;3.65;;;;;;;;;;5055141;28;20025;-45
2022/01/12 04:55:42;;;;;;;5.53;4.03;;;;;;;;;;5054870;28;20037;-46
2022/01/12 04:58:08;;;;;;;5.45;4.05;;;;;;;;;;5054657;28;20021;-46
2022/01/12 05:00:35;;;;;;;4.53;3.83;;;13.70;91.10;;;;;;5054639;28;20040;-46
2022/01/12 05:13:44;;;;;;;5.43;4.13;;;;;;;;;;5054415;28;20032;-48
2022/01/12 05:16:10;;;;;;;4.72;3.60;;;;;;;;;;5054252;28;20083;-48
2022/01/12 05:18:36;;;;;;;4.85;3.42;;;;;;;;;;5054578;28;20021;-47
2022/01/12 05:21:03;;;;;;;5.90;4.32;;;13.50;91.00;;;;;;5054194;28;20396;-48
2022/01/12 05:23:29;;;;;;;5.20;3.90;;;;;;;;;;5054196;28;20021;-47
2022/01/12 05:25:55;;;;;;;4.55;3.67;;;;;;;;;;5054165;28;20040;-47
2022/01/12 05:28:22;;;;;;;5.20;4.03;;;13.60;90.20;;;;;;5054190;28;20104;-45
2022/01/12 05:30:49;;;;;;;5.85;4.68;;;13.60;88.70;;;;;;5054131;28;20039;-45
2022/01/12 05:33:16;;;;;;;6.22;4.18;;;;;;;;;;5053997;28;20029;-45
2022/01/12 05:35:43;;;;;;;5.15;3.95;;;;;;;;;;5054163;28;20033;-45
2022/01/12 05:38:12;;;;;;;4.88;4.00;;;13.50;90.90;;;;;;5054147;28;20486;-45
2022/01/12 05:40:39;;;;;;;7.40;4.47;;;;;;;;;;5053888;28;20037;-45
2022/01/12 05:43:05;;;;;;;6.10;4.28;;;;;;;;;;5054024;28;20387;-45
2022/01/12 05:45:33;;;;;;;6.82;4.32;;;;;;;;;;5053755;28;20028;-45
2022/01/12 05:50:26;;;;;;;6.20;4.45;;;;;;;;;;5054217;28;20037;-45
2022/01/12 05:52:52;;;;;;;6.05;4.43;;;;;;;;;;5053647;28;20483;-45
2022/01/12 05:55:18;;;;;;;6.00;4.28;;;;;;;;;;5053478;28;20498;-46
2022/01/12 05:57:44;;;;;;;5.47;4.15;;;;;;;;;;5053466;28;20049;-45
2022/01/12 06:00:13;;;;;;;6.45;4.88;;;13.60;91.20;;;;;;5053413;28;20100;-47
2022/01/12 06:02:39;;;;;;;6.00;4.13;;;;;;;;;;5053223;28;20435;-46
2022/01/12 06:05:05;;;;;;;7.70;4.47;;;;;;;;;;5053289;28;20025;-45
2022/01/12 06:07:31;;;;;;;6.75;4.07;;;;;;;;;;5053626;28;20074;-45
2022/01/12 06:09:57;;;;;;;5.70;4.35;;;;;;;;;;5053261;28;20074;-44
2022/01/12 06:12:23;;;;;;;5.57;3.85;;;;;;;;;;5053154;28;20430;-45
2022/01/12 06:14:49;;;;;;;5.97;3.90;;;;;;;;;;5053224;28;20052;-45
2022/01/12 06:17:15;;;;;;;7.72;4.57;;;;;;;;;;5053045;28;20123;-45
2022/01/12 06:19:41;;;;;;;4.82;3.45;;;;;;;;;;5053099;28;20060;-45
2022/01/12 06:22:07;;;;;;;6.30;4.03;;;;;;;;;;5053093;28;20029;-45
2022/01/12 06:24:33;;;;;;;4.70;3.28;;;;;;;;;;5053100;28;20028;-48
2022/01/12 06:27:00;;;;;;;3.95;3.45;;;15.30;87.10;;;;;;5052986;28;20029;-48
2022/01/12 06:32:12;;;;;;;4.97;3.60;;;;;;;;;;5021607;28;20036;-47
2022/01/12 06:34:38;;;;;;;7.03;3.92;;;;;;;;;;5052772;28;20025;-47
2022/01/12 06:37:04;;;;;;;5.53;3.80;;;;;;;;;;5052731;28;20098;-49
2022/01/12 06:39:30;;;;;;;5.40;3.42;;;;;;;;;;5052666;28;20079;-48
2022/01/12 06:41:56;;;;;;;4.65;3.65;;;;;;;;;;5052674;28;20438;-45
2022/01/12 06:44:22;;;;;;;6.50;4.13;;;;;;;;;;5052874;28;20112;-46
2022/01/12 06:46:51;;;;;;;6.00;3.40;;;15.80;88.40;;;;;;5052674;28;20024;-46
2022/01/12 06:49:17;;;;;;;4.68;3.03;;;15.90;84.90;;;;;;5052557;28;20483;-45
2022/01/12 06:51:43;;;;;;;6.15;3.72;;;;;;;;;;5052583;28;20021;-46
2022/01/12 06:54:09;;;;;;;6.50;3.65;;;;;;;;;;5052799;28;20031;-44
2022/01/12 06:56:35;;;;;;;6.30;3.92;;;;;;;;;;5052440;28;20491;-44
2022/01/12 06:59:05;;;;;;;6.35;3.92;;;15.70;89.20;;;;;;5052841;28;20388;-44
2022/01/12 07:01:31;;;;;;;5.75;4.20;;;;;;;;;;5052195;28;20055;-45
2022/01/12 07:03:57;;;;;;;6.93;3.80;;;;;;;;;;5052520;28;20069;-46
2022/01/12 07:06:23;;;;;;;5.90;3.60;;;;;;;;;;5052404;28;20467;-44
2022/01/12 07:08:49;;;;;;;5.25;4.18;;;;;;;;;;5052321;28;20036;-46
2022/01/12 07:11:15;;;;;;;6.35;3.85;;;;;;;;;;5051698;28;20044;-46
2022/01/12 07:13:41;;;;;;;7.40;4.40;;;;;;;;;;5052246;28;20029;-46
2022/01/12 07:16:07;;;;;;;6.80;4.10;;;;;;;;;;5052175;28;20041;-45
2022/01/12 07:18:33;;;;;;;6.10;3.92;;;;;;;;;;5052202;28;20032;-47
2022/01/12 07:20:59;;;;;;;5.95;3.97;;;;;;;;;;5052557;28;20025;-46
2022/01/12 07:23:26;;;;;;;6.25;4.35;;;15.50;88.90;;;;;;5052151;28;20458;-46
2022/01/12 07:25:53;;;;;;;6.78;4.38;;;;;;;;;;5052338;28;20035;-47
2022/01/12 07:28:19;;;;;;;5.85;4.13;;;15.60;87.20;;;;;;5052429;28;20444;-47
2022/01/12 07:30:45;;;;;;;6.72;4.60;;;;;;;;;;5052067;28;20112;-46
2022/01/12 07:33:12;;;;;;;5.82;4.13;;;15.60;89.50;;;;;;5052128;28;20033;-46
2022/01/12 07:35:38;;;;;;;6.03;4.20;;;;;;;;;;5052206;28;20379;-47
2022/01/12 07:38:04;;;;;;;7.40;4.28;;;;;;;;;;5052136;28;20040;-48
2022/01/12 07:40:30;;;;;;;7.32;4.75;;;;;;;;;;5052062;28;20025;-50
2022/01/12 07:42:57;;;;;;;9.57;4.70;;;;;;;;;;5052249;28;20022;-50
2022/01/12 07:45:23;;;;;;;10.50;4.93;;;;;;;;;;5051818;28;20029;-51
2022/01/12 07:47:49;;;;;;;7.32;5.07;;;;;;;;;;5051994;28;20075;-49
2022/01/12 07:50:15;;;;;;;7.00;5.05;;;;;;;;;;5051940;28;20032;-47
2022/01/12 07:52:41;;;;;;;20.17;5.82;;;;;;;;;;5051928;28;20057;-47
2022/01/12 07:55:07;;;;;;;7.97;5.55;;;;;;;;;;5051841;28;20471;-45
2022/01/12 07:57:33;;;;;;;9.32;5.43;;;15.60;86.30;;;;;;5051583;28;20043;-46
2022/01/12 07:59:59;;;;;;;11.32;6.13;;;;;;;;;;5051425;28;20391;-46
2022/01/12 08:02:25;;;;;;;8.68;4.63;;;;;;;;;;5051383;28;20087;-46
2022/01/12 08:04:52;;;;;;;8.48;5.15;;;;;;;;;;5051429;28;20021;-45
2022/01/12 08:07:18;;;;;;;8.13;5.47;;;;;;;;;;5051405;28;20025;-46
2022/01/12 08:09:44;;;;;;;9.25;5.30;;;;;;;;;;5051452;28;20040;-45
2022/01/12 08:12:10;;;;;;;8.32;5.40;;;;;;;;;;5051745;28;20025;-45
2022/01/12 08:14:36;;;;;;;8.65;5.05;;;;;;;;;;5051702;28;20029;-45
2022/01/12 08:17:03;;;;;;;7.90;4.93;;;;;;;;;;5051641;28;20552;-46
2022/01/12 08:19:29;;;;;;;7.90;4.80;;;;;;;;;;5051663;28;20036;-45
2022/01/12 08:21:55;;;;;;;6.63;4.13;;;15.60;85.90;;;;;;5052587;28;20046;-45
2022/01/12 08:24:21;;;;;;;7.82;5.07;;;;;;;;;;5055586;28;20021;-45
2022/01/12 08:26:48;;;;;;;9.30;4.78;;;;;;;;;;5055627;28;20033;-46
2022/01/12 08:29:15;;;;;;;7.95;4.88;;;;;;;;;;5055267;28;20045;-45
2022/01/12 08:31:45;;;;;;;7.53;5.10;;;15.60;89.10;;;;;;5055542;28;20033;-47
2022/01/12 08:34:11;;;;;;;8.18;5.13;;;;;;;;;;5055245;28;20029;-46
2022/01/12 08:36:41;;;;;;;6.28;4.78;;;15.60;82.90;;;;;;5055010;28;20033;-46
2022/01/12 08:39:08;;;;;;;7.03;4.88;;;15.60;85.70;;;;;;5054781;28;20032;-45
2022/01/12 08:41:35;;;;;;;7.45;4.60;;;;;;;;;;5054689;28;20036;-45
2022/01/12 08:44:01;;;;;;;6.63;4.63;;;;;;;;;;5054487;28;20028;-46
2022/01/12 08:46:27;;;;;;;6.65;4.38;;;;;;;;;;5054478;28;20025;-45
2022/01/12 08:48:53;;;;;;;9.65;5.25;;;;;;;;;;5054603;28;20471;-46
2022/01/12 08:51:19;;;;;;;8.60;4.85;;;;;;;;;;5054903;28;20029;-47
2022/01/12 08:53:45;;;;;;;10.65;5.43;;;;;;;;;;5054848;28;20107;-47
2022/01/12 08:56:11;;;;;;;7.03;4.80;;;;;;;;;;5054409;28;20112;-47
2022/01/12 08:58:37;;;;;;;8.73;5.38;;;;;;;;;;5054221;28;20060;-47
2022/01/12 09:01:04;;;;;;;9.82;5.28;;;15.50;85.70;;;;;;5054086;28;20131;-46
2022/01/12 09:03:31;;;;;;;9.57;4.88;;;15.50;89.10;;;;;;5053955;28;20102;-46
2022/01/12 09:05:57;;;;;;;7.70;4.80;;;;;;;;;;5054091;28;20108;-47
2022/01/12 09:08:23;;;;;;;7.30;5.05;;;;;;;;;;5054362;28;20373;-48
2022/01/12 09:10:49;;;;;;;6.85;4.45;;;;;;;;;;5054257;28;20163;-46
2022/01/12 09:13:15;;;;;;;6.55;4.32;;;;;;;;;;5054027;28;20458;-45
2022/01/12 09:15:41;;;;;;;7.88;4.82;;;;;;;;;;5054310;28;20043;-45
2022/01/12 09:18:07;;;;;;;7.05;4.53;;;;;;;;;;5054085;28;20033;-45
2022/01/12 09:20:33;;;;;;;6.68;4.28;;;;;;;;;;5054110;28;20036;-45
2022/01/12 09:22:59;;;;;;;7.80;4.10;;;15.70;86.00;;;;;;5053968;28;20025;-46
2022/01/12 09:25:25;;;;;;;7.70;4.78;;;;;;;;;;5054126;28;20021;-47
2022/01/12 09:27:52;;;;;;;6.65;4.25;;;;;;;;;;5054042;28;20029;-46
2022/01/12 09:30:19;;;;;;;6.00;4.35;;;;;;;;;;5052614;28;20125;-46
2022/01/12 09:32:45;;;;;;;5.97;3.90;;;15.70;87.20;;;;;;5053716;28;20079;-47
2022/01/12 09:35:12;;;;;;;5.45;4.15;;;15.70;86.00;;;;;;5052974;28;20025;-46
2022/01/12 09:37:38;;;;;;;8.38;4.75;;;;;;;;;;5053665;28;20028;-46
2022/01/12 09:40:05;;;;;;;6.85;3.72;;;15.70;85.80;;;;;;5053625;28;20033;-46
2022/01/12 09:42:32;;;;;;;4.45;3.60;;;;;;;;;;5053556;28;20056;-46
2022/01/12 09:44:58;;;;;;;6.45;3.72;;;;;;;;;;5053806;28;20033;-46
2022/01/12 09:47:24;;;;;;;6.25;4.07;;;;;;;;;;5053610;28;20033;-47
2022/01/12 09:49:50;;;;;;;4.88;3.75;;;;;;;;;;5053467;28;20485;-46
2022/01/12 09:52:16;;;;;;;7.28;4.32;;;;;;;;;;5053692;28;20033;-47
2022/01/12 09:54:42;;;;;;;6.65;3.75;;;;;;;;;;5053766;28;20028;-48
2022/01/12 09:57:09;;;;;;;6.72;3.95;;;;;;;;;;5053773;28;20141;-47
2022/01/12 09:59:35;;;;;;;4.93;3.53;;;;;;;;;;5053925;28;20029;-47
2022/01/12 10:02:01;;;;;;;6.03;4.00;;;;;;;;;;5053042;28;20037;-47
2022/01/12 10:04:29;;;;;;;4.68;3.25;;;15.80;88.80;;;;;;5053310;28;20033;-46
2022/01/12 10:07:01;;;;;;;6.53;3.20;;;15.70;82.60;;;;;;5053117;28;20021;-48
2022/01/12 10:09:43;;;;;;;5.90;3.92;;;15.80;82.60;;;;;;5053000;28;20112;-47
2022/01/12 10:12:13;;;;;;;5.47;4.20;;;15.80;88.70;;;;;;5053282;28;20037;-47
2022/01/12 10:14:49;;;;;;;5.73;3.50;;;15.70;82.40;;;;;;5053290;28;20116;-47
2022/01/12 10:17:17;;;;;;;5.13;3.25;;;15.70;88.70;;;;;;5053416;28;20037;-47
2022/01/12 10:19:43;;;;;;;5.72;3.42;;;;;;;;;;5053192;28;20029;-47
2022/01/12 10:22:11;;;;;;;5.78;3.40;;;15.70;88.90;;;;;;5053391;28;20040;-45
2022/01/12 10:24:45;;;;;;;4.32;3.40;;;15.70;82.80;;;;;;5053409;28;20108;-47
2022/01/12 10:27:14;;;;;;;5.28;3.28;;;15.70;89.70;;;;;;5053140;28;20029;-47
2022/01/12 10:29:40;;;;;;;4.43;3.13;;;;;;;;;;5053030;28;20055;-49
2022/01/12 10:32:08;;;;;;;5.95;4.07;;;;;;;;;;5053031;28;20107;-46
2022/01/12 10:34:45;;;;;;;4.70;3.35;;;15.70;83.00;;;;;;5052959;28;20025;-47
2022/01/12 10:37:13;;;;;;;3.53;2.80;;;15.80;89.20;;;;;;5052823;28;20044;-47
2022/01/12 10:39:45;;;;;;;4.68;3.25;;;15.70;82.90;;;;;;5052900;28;20047;-47
2022/01/12 10:42:13;;;;;;;3.67;2.80;;;15.70;89.40;;;;;;5053095;28;20025;-48
2022/01/12 10:44:41;;;;;;;4.75;3.30;;;15.60;89.10;;;;;;5052560;28;20116;-47
2022/01/12 10:47:07;;;;;;;4.63;2.92;;;;;;;;;;5052099;28;20025;-46
2022/01/12 10:49:36;;;;;;;4.30;3.22;;;;;;;;;;5052690;28;20036;-47
2022/01/12 10:52:03;;;;;;;4.68;2.97;;;15.70;86.40;;;;;;5052668;28;20104;-47
2022/01/12 10:54:29;;;;;;;4.53;3.28;;;;;;;;;;5052809;28;20061;-46
2022/01/12 10:56:55;;;;;;;4.60;3.20;;;;;;;;;;5052508;28;20044;-47
2022/01/12 10:59:21;;;;;;;3.33;2.38;;;15.60;89.20;;;;;;5052246;28;20029;-46
2022/01/12 11:01:48;;;;;;;5.93;3.83;;;;;;;;;;5052122;28;20123;-46
2022/01/12 11:04:14;;;;;;;4.50;2.90;;;;;;;;;;5052138;28;20058;-46
2022/01/12 11:06:40;;;;;;;3.63;2.60;;;;;;;;;;5052036;28;20028;-47
2022/01/12 11:09:06;;;;;;;6.03;3.67;;;;;;;;;;5052076;28;20067;-45
2022/01/12 11:11:34;;;;;;;4.45;2.92;;;;;;;;;;5052028;28;20036;-46
2022/01/12 11:14:00;;;;;;;7.03;4.00;;;;;;;;;;5052242;28;20429;-46
2022/01/12 11:16:28;;;;;;;8.13;3.00;;;15.70;89.10;;;;;;5051943;28;20033;-45
2022/01/12 11:18:55;;;;;;;6.05;3.92;;;15.70;87.80;;;;;;5052309;28;20109;-46
2022/01/12 11:21:22;;;;;;;9.18;3.30;;;;;;;;;;5052144;28;20423;-45
2022/01/12 11:23:50;;;;;;;3.97;3.10;;;15.70;88.90;;;;;;5051960;28;20514;-46
2022/01/12 11:26:19;;;;;;;8.00;3.08;;;15.50;88.50;;;;;;5052053;28;20419;-46
2022/01/12 11:28:48;;;;;;;23.77;3.88;;;15.60;88.80;;;;;;5052050;28;20029;-45
2022/01/12 11:31:32;;;;;;;3.45;2.58;;;15.60;82.80;;;;;;5051839;28;20059;-46
2022/01/12 11:33:58;;;;;;;6.63;3.25;;;15.60;87.20;;;;;;5051850;28;20028;-46
2022/01/12 11:36:36;;;;;;;3.92;2.78;;;15.70;88.70;;;;;;5051681;28;20147;-46
2022/01/12 11:39:08;;;;;;;4.22;3.05;;;15.70;82.60;;;;;;5051977;28;20021;-46
2022/01/12 11:41:35;;;;;;;6.05;3.30;;;;;;;;;;5051658;28;20056;-45
2022/01/12 11:44:08;;;;;;;8.48;3.10;;;15.70;82.60;;;;;;5051522;28;20021;-45
2022/01/12 11:46:50;;;;;;;3.13;2.75;;;15.70;82.40;;;;;;5051876;28;20043;-45
2022/01/12 11:49:25;;;;;;;4.65;3.13;;;15.70;82.40;;;;;;5051624;28;20036;-46
2022/01/12 11:51:52;;;;;;;5.00;3.13;;;;;;;;;;5051640;28;20368;-46
2022/01/12 11:54:36;;;;;;;4.45;2.83;;;15.70;88.80;;;;;;5051574;28;20107;-47
2022/01/12 11:57:02;;;;;;;6.35;2.70;;;;;;;;;;5051786;28;20025;-47
2022/01/12 11:59:30;;;;;;;4.05;2.83;;;15.60;88.60;;;;;;5055673;28;20055;-48
2022/01/12 12:02:11;;;;;;;8.50;3.45;;;15.70;82.30;;;;;;5055546;28;20055;-49
2022/01/12 12:04:37;;;;;;;4.60;3.13;;;;;;;;;;5055844;28;20033;-47
2022/01/12 12:07:08;;;;;;;8.07;3.50;;;15.70;88.60;;;;;;5055818;28;20036;-48
2022/01/12 12:09:56;;;;;;;4.65;2.78;;;15.60;82.30;;;;;;5055751;28;20025;-47
2022/01/12 12:12:23;;;;;;;6.32;3.53;;;;;;;;;;5055756;28;20052;-48
2022/01/12 12:14:53;;;;;;;7.07;3.00;;;15.70;89.00;;;;;;5055563;28;20104;-49
2022/01/12 12:17:20;;;;;;;5.38;3.20;;;15.70;87.60;;;;;;5055433;28;20037;-47
2022/01/12 12:19:46;;;;;;;5.03;2.97;;;;;;;;;;5055430;28;20079;-46
2022/01/12 12:22:21;;;;;;;5.88;2.50;;;15.60;82.50;;;;;;5055499;28;20518;-45
2022/01/12 12:24:55;;;;;;;5.95;3.10;;;15.70;88.60;;;;;;5055415;28;20052;-46
2022/01/12 12:27:22;;;;;;;5.00;3.20;;;15.70;88.90;;;;;;5055931;28;20099;-46
2022/01/12 12:29:49;;;;;;;6.10;2.83;;;15.70;88.70;;;;;;5055400;28;20383;-45
2022/01/12 12:32:19;;;;;;;5.28;2.80;;;15.70;88.80;;;;;;5055063;28;20017;-46
2022/01/12 12:34:46;;;;;;;8.40;3.40;;;15.70;88.60;;;;;;5055184;28;20052;-46
2022/01/12 12:37:15;;;;;;;5.75;2.88;;;15.80;89.20;;;;;;5055192;28;20072;-46
2022/01/12 12:39:44;;;;;;;4.80;3.10;;;15.70;89.10;;;;;;5055213;28;20064;-48
2022/01/12 12:42:19;;;;;;;6.75;2.78;;;16.20;83.20;;;;;;5055096;28;20132;-46
2022/01/12 12:44:48;;;;;;;7.43;3.15;;;15.80;88.70;;;;;;5055045;28;20107;-46
2022/01/12 12:47:16;;;;;;;7.10;3.40;;;15.80;88.30;;;;;;5055075;28;20041;-47
2022/01/12 12:49:47;;;;;;;6.05;2.58;;;15.90;82.60;;;;;;5055092;28;20024;-47
2022/01/12 12:52:13;;;;;;;4.88;2.45;;;;;;;;;;5055234;28;20086;-46
2022/01/12 12:54:42;;;;;;;9.43;2.90;;;16.10;83.00;;;;;;5054911;28;20037;-48
2022/01/12 12:57:10;;;;;;;4.30;2.60;;;;;;;;;;5054656;28;20040;-47
2022/01/12 12:59:36;;;;;;;6.40;3.05;;;;;;;;;;5054667;28;20467;-50
2022/01/12 13:02:12;;;;;;;5.70;2.53;;;16.20;82.90;;;;;;5054330;28;20036;-48
2022/01/12 13:04:38;;;;;;;6.30;3.10;;;;;;;;;;5054812;28;20024;-49
2022/01/12 13:07:16;;;;;;;7.32;2.67;;;16.40;82.30;;;;;;5054402;28;20033;-48
2022/01/12 13:09:46;;;;;;;6.30;2.83;;;16.40;82.40;;;;;;5053739;28;20056;-47
2022/01/12 13:12:12;;;;;;;4.35;2.63;;;;;;;;;;5054478;28;20036;-51
2022/01/12 13:14:47;;;;;;;5.22;2.83;;;16.60;81.80;;;;;;5054244;28;20025;-49
2022/01/12 13:17:14;;;;;;;4.93;3.15;;;;;;;;;;5052797;28;20556;-49
2022/01/12 13:22:24;;;;;;;5.10;2.97;;;16.80;81.50;;;;;;5054424;28;20103;-48
2022/01/12 13:24:50;;;;;;;4.03;2.45;;;;;;;;;;5053939;28;20391;-48
2022/01/12 13:27:16;;;;;;;6.72;3.05;;;;;;;;;;5053927;28;20044;-47
2022/01/12 13:29:50;;;;;;;5.35;2.53;;;17.10;82.40;;;;;;5054061;28;20025;-48
2022/01/12 13:32:16;;;;;;;3.08;2.55;;;;;;;;;;5054023;28;20112;-48
2022/01/12 13:34:57;;;;;;;7.18;2.33;;;17.10;90.10;;;;;;5053933;28;20060;-48
2022/01/12 13:37:23;;;;;;;4.72;2.45;;;;;;;;;;5054089;28;20112;-48
2022/01/12 13:40:11;;;;;;;6.25;2.50;;;17.30;85.00;;;;;;5053891;28;20139;-48
2022/01/12 13:42:54;;;;;;;5.15;2.58;;;17.10;85.20;;;;;;5053843;28;20112;-49
2022/01/12 13:46:12;;;;;;;5.78;2.70;;;17.30;85.80;;;;;;5053811;28;20428;-48
2022/01/12 13:48:30;;;;;;;3.78;2.25;;;17.10;91.00;;;;;;5050456;28;20564;-48
2022/01/12 13:50:57;;;;;;;4.50;2.53;;;;;;;;;;5053806;28;20048;-49
2022/01/12 13:53:39;;;;;;;3.80;2.40;;;17.20;86.70;;;;;;5053782;28;20033;-49
2022/01/12 13:56:07;;;;;;;3.78;2.20;;;17.20;90.30;;;;;;5053342;28;20120;-48
2022/01/12 13:58:35;;;;;;;5.13;2.50;;;17.30;91.40;;;;;;5053664;28;20029;-47
2022/01/12 14:01:12;;;;;;;4.47;2.05;;;17.40;91.40;;;;;;5053346;28;20055;-47
2022/01/12 14:03:51;;;;;;;3.83;2.63;;;17.40;87.20;;;;;;5053209;28;20124;-46
2022/01/12 14:06:20;;;;;;;2.92;2.08;;;17.30;90.40;;;;;;5053526;28;20361;-47
2022/01/12 14:08:51;;;;;;;17.27;2.78;;;;;;;;;;5053227;28;20021;-46
2022/01/12 14:11:17;;;;;;;6.72;2.28;;;;;;;;;;5053085;28;20609;-48
2022/01/12 14:13:43;;;;;;;3.80;2.53;;;;;;;;;;5053449;28;20029;-46
2022/01/12 14:16:11;;;;;;;2.72;1.95;;;17.50;91.80;;;;;;5052984;28;20398;-47
2022/01/12 14:18:38;;;;;;;4.22;2.28;;;;;;;;;;5052932;28;20475;-47
2022/01/12 14:21:18;;;;;;;2.03;1.67;;;17.60;87.90;;;;;;5052716;28;20066;-47
2022/01/12 14:23:44;;;;;;;2.25;1.77;;;17.60;91.30;;;;;;5053016;28;20033;-47
2022/01/12 14:26:29;;;;;;;3.45;2.13;;;17.70;88.20;;;;;;5052851;28;20112;-47
2022/01/12 14:28:56;;;;;;;2.63;2.10;;;;;;;;;;5053027;28;20035;-47
2022/01/12 14:31:23;;;;;;;3.78;2.22;;;;;;;;;;5053000;28;20118;-47
2022/01/12 14:33:49;;;;;;;3.63;2.00;;;;;;;;;;5052992;28;20021;-47
2022/01/12 14:36:16;;;;;;;2.75;1.73;;;17.70;91.50;;;;;;5052779;28;20055;-48
2022/01/12 14:38:42;;;;;;;3.47;2.25;;;;;;;;;;5051756;28;20024;-49
2022/01/12 14:41:08;;;;;;;3.63;1.90;;;;;;;;;;5052902;28;20028;-47
2022/01/12 14:43:34;;;;;;;2.85;1.80;;;;;;;;;;5052831;28;20116;-47
2022/01/12 14:46:00;;;;;;;2.17;1.55;;;;;;;;;;5052770;28;20029;-49
2022/01/12 14:48:26;;;;;;;1.55;1.40;;;;;;;;;;5052709;28;20112;-49
2022/01/12 14:50:54;;;;;;;2.90;1.60;;;17.70;91.90;;;;;;5052820;28;20053;-49
2022/01/12 14:53:23;;;;;;;2.15;1.80;;;;;;;;;;5052621;28;20027;-48
2022/01/12 14:55:55;;;;;;;2.10;1.90;;;17.80;89.20;;;;;;5052512;28;20040;-50
2022/01/12 14:58:22;;;;;;;3.58;2.20;;;17.70;92.00;;;;;;5052721;28;20382;-48
2022/01/12 15:00:49;;;;;;;3.70;2.22;;;;;;;;;;5052386;28;20087;-47
2022/01/12 15:03:15;;;;;;;3.60;1.55;;;;;;;;;;5052123;28;20557;-46
2022/01/12 15:05:42;;;;;;;4.80;2.22;;;17.70;92.40;;;;;;5052232;28;20033;-47
2022/01/12 15:08:09;;;;;;;2.95;2.10;;;;;;;;;;5052188;28;20380;-46
2022/01/12 15:10:35;;;;;;;4.93;2.45;;;;;;;;;;5052103;28;20036;-49
2022/01/12 15:13:14;;;;;;;3.50;2.33;;;;;;;;;;5050816;28;20479;-46
2022/01/12 15:15:41;;;;;;;4.53;2.85;;;;;;;;;;5052335;28;20044;-47
2022/01/12 15:18:07;;;;;;;5.18;2.17;;;;;;;;;;5052120;28;20035;-47
2022/01/12 15:20:33;;;;;;;4.85;2.70;;;;;;;;;;5052065;28;20479;-49
2022/01/12 15:22:58;;;;;;;3.83;2.30;;;;;;;;;;5052041;28;20386;-49
2022/01/12 15:25:26;;;;;;;2.97;2.35;;;;;;;;;;5051926;28;20029;-48